Time;durP1;ratioP1;P1;durP2;ratioP2;P2;SDS_P1;SDS_P2;PMS_P1;PMS_P2;Temp;Humidity;BMP_temperature;BMP_pressure;BME280_temperature;BME280_humidity;BME280_pressure;Samples;Min_cycle;Max_cycle;Signal;HPM_P1;HPM_P2
2022/02/20 00:06:34;;;;;;;4.60;1.60;;;;;;;;;;19816096;30;20129;-60
2022/02/20 00:16:37;;;;;;;4.18;1.48;;;;;;;;;;19815509;30;20417;-59
2022/02/20 00:26:39;;;;;;;3.88;1.50;;;;;;;;;;19814860;29;20150;-60
2022/02/20 00:36:41;;;;;;;5.35;1.45;;;;;;;;;;19829010;30;20059;-59
2022/02/20 00:46:43;;;;;;;6.15;1.65;;;;;;;;;;19811804;30;20505;-59
2022/02/20 00:56:45;;;;;;;3.35;1.20;;;;;;;;;;19827887;30;20085;-59
2022/02/20 01:06:47;;;;;;;4.18;1.50;;;;;;;;;;19826039;30;20069;-60
2022/02/20 01:16:49;;;;;;;3.83;1.85;;;;;;;;;;19826249;30;20154;-59
2022/02/20 01:26:51;;;;;;;2.03;1.10;;;;;;;;;;19824932;30;20070;-59
2022/02/20 01:36:55;;;;;;;3.58;1.30;;;;;;;;;;19824822;29;20055;-58
2022/02/20 01:47:02;;;;;;;4.93;1.17;;;;;;;;;;19823777;30;20421;-58
2022/02/20 01:57:04;;;;;;;6.93;2.75;;;;;;;;;;19823807;30;20051;-60
2022/02/20 02:07:06;;;;;;;5.43;2.30;;;;;;;;;;19822854;30;20051;-63
2022/02/20 02:17:09;;;;;;;5.40;1.92;;;;;;;;;;19822292;30;20435;-60
2022/02/20 02:27:14;;;;;;;7.72;2.17;;;;;;;;;;19821060;30;20070;-63
2022/02/20 02:37:22;;;;;;;5.28;2.00;;;;;;;;;;19820501;30;20555;-57
2022/02/20 02:47:30;;;;;;;5.20;1.95;;;;;;;;;;19819529;30;20064;-57
2022/02/20 02:57:41;;;;;;;5.15;1.58;;;;;;;;;;19818610;30;20423;-63
2022/02/20 03:07:50;;;;;;;5.45;1.60;;;;;;;;;;19803370;30;20074;-59
2022/02/20 03:18:03;;;;;;;7.95;1.90;;;;;;;;;;19817689;30;20071;-58
2022/02/20 03:28:24;;;;;;;3.85;2.05;;;;;;;;;;19817151;29;20442;-58
2022/02/20 03:38:46;;;;;;;3.28;1.95;;;;;;;;;;19816963;30;20063;-58
2022/02/20 03:48:58;;;;;;;7.40;2.15;;;;;;;;;;19816488;30;20059;-58
2022/02/20 03:59:05;;;;;;;3.72;1.52;;;;;;;;;;19815490;30;20093;-58
2022/02/20 04:09:15;;;;;;;4.35;2.22;;;;;;;;;;19814665;30;20109;-59
2022/02/20 04:19:26;;;;;;;3.85;1.70;;;;;;;;;;19814609;30;20055;-59
2022/02/20 04:29:46;;;;;;;5.35;1.75;;;;;;;;;;19813917;29;20051;-59
2022/02/20 04:40:00;;;;;;;3.95;1.83;;;;;;;;;;19814438;30;20131;-59
2022/02/20 04:50:21;;;;;;;5.35;2.45;;;;;;;;;;19813493;30;20059;-59
2022/02/20 05:00:43;;;;;;;5.82;2.63;;;;;;;;;;19801271;30;20063;-59
2022/02/20 05:11:05;;;;;;;3.88;2.30;;;;;;;;;;19813737;30;20425;-59
2022/02/20 05:21:26;;;;;;;5.38;2.22;;;;;;;;;;19825166;29;20063;-58
2022/02/20 05:31:48;;;;;;;5.43;2.53;;;;;;;;;;19824964;30;20051;-59
2022/02/20 05:42:06;;;;;;;6.30;2.30;;;;;;;;;;19825552;30;20086;-60
2022/02/20 05:52:15;;;;;;;6.93;2.83;;;;;;;;;;19824129;30;20056;-57
2022/02/20 06:02:23;;;;;;;5.50;2.13;;;;;;;;;;19823539;30;20421;-61
2022/02/20 06:12:26;;;;;;;4.72;2.50;;;;;;;;;;19822345;30;20081;-59
2022/02/20 06:22:30;;;;;;;5.53;2.38;;;;;;;;;;19821863;30;20059;-59
2022/02/20 06:32:33;;;;;;;4.22;2.72;;;;;;;;;;19821248;29;20061;-59
2022/02/20 06:42:35;;;;;;;5.20;2.42;;;;;;;;;;19820952;30;20390;-59
2022/02/20 06:52:38;;;;;;;4.72;2.70;;;;;;;;;;19819718;30;20138;-60
2022/02/20 07:02:41;;;;;;;4.78;2.78;;;;;;;;;;19819773;30;20429;-58
2022/02/20 07:12:46;;;;;;;3.95;2.60;;;;;;;;;;19819558;30;20055;-59
2022/02/20 07:22:49;;;;;;;8.35;3.42;;;;;;;;;;19817527;30;20429;-60
2022/02/20 07:32:51;;;;;;;6.05;2.97;;;;;;;;;;19816894;30;20065;-60
2022/02/20 07:42:54;;;;;;;4.30;2.50;;;;;;;;;;19816744;29;20066;-59
2022/02/20 07:52:59;;;;;;;7.90;3.07;;;;;;;;;;19816127;30;20059;-60
2022/02/20 08:03:03;;;;;;;7.30;3.42;;;;;;;;;;19814919;30;20059;-58
2022/02/20 08:13:05;;;;;;;10.10;3.70;;;;;;;;;;19798394;30;20421;-59
2022/02/20 08:23:08;;;;;;;8.35;3.50;;;;;;;;;;19815104;30;20087;-58
2022/02/20 08:33:12;;;;;;;8.43;3.72;;;;;;;;;;19813908;30;20142;-59
2022/02/20 08:43:15;;;;;;;6.32;3.80;;;;;;;;;;19813076;30;20070;-59
2022/02/20 08:53:18;;;;;;;7.45;3.80;;;;;;;;;;19821648;29;20059;-59
2022/02/20 09:03:21;;;;;;;8.38;3.65;;;;;;;;;;19826971;30;20580;-60
2022/02/20 09:13:24;;;;;;;11.77;4.68;;;;;;;;;;19825876;30;20055;-60
2022/02/20 09:23:28;;;;;;;8.23;3.70;;;;;;;;;;19825038;29;20063;-59
2022/02/20 09:33:30;;;;;;;8.65;4.15;;;;;;;;;;19824931;30;20055;-59
2022/02/20 09:43:36;;;;;;;4.68;3.30;;;;;;;;;;19823539;30;20521;-58
2022/02/20 09:53:38;;;;;;;8.45;4.80;;;;;;;;;;19822847;30;20165;-59
2022/02/20 10:03:42;;;;;;;4.20;3.05;;;;;;;;;;19822338;29;20149;-60
2022/02/20 10:13:46;;;;;;;4.30;2.80;;;;;;;;;;19822186;30;20098;-59
2022/02/20 10:23:49;;;;;;;4.40;2.92;;;;;;;;;;19820748;29;20066;-63
2022/02/20 10:34:09;;;;;;;9.00;3.28;;;;;;;;;;19823571;30;20558;-65
2022/02/20 10:44:12;;;;;;;4.68;2.60;;;;;;;;;;19820884;30;20521;-63
2022/02/20 10:54:16;;;;;;;4.65;2.20;;;;;;;;;;19805147;30;20459;-61
2022/02/20 11:04:19;;;;;;;7.93;2.50;;;;;;;;;;19818608;30;20055;-60
2022/02/20 11:14:21;;;;;;;4.43;2.38;;;;;;;;;;19818153;29;20130;-65
2022/02/20 11:24:26;;;;;;;4.63;2.15;;;;;;;;;;19817536;30;20059;-60
2022/02/20 11:34:29;;;;;;;5.97;2.40;;;;;;;;;;19816335;30;20106;-59
2022/02/20 11:44:44;;;;;;;4.28;2.20;;;;;;;;;;19816179;30;20063;-59
2022/02/20 11:54:46;;;;;;;4.95;3.08;;;;;;;;;;19815855;30;20490;-60
2022/02/20 12:04:53;;;;;;;3.50;2.85;;;;;;;;;;19814078;30;20066;-64
2022/02/20 12:15:13;;;;;;;4.50;2.92;;;;;;;;;;19814441;30;20470;-63
2022/02/20 12:25:18;;;;;;;4.50;2.30;;;;;;;;;;19819827;29;20592;-65
2022/02/20 12:35:22;;;;;;;3.40;1.47;;;;;;;;;;19830210;30;20496;-62
2022/02/20 12:45:27;;;;;;;3.65;1.80;;;;;;;;;;19828314;30;20055;-63
2022/02/20 12:55:28;;;;;;;3.20;1.63;;;;;;;;;;19828496;30;20056;-64
2022/02/20 13:05:35;;;;;;;2.15;1.40;;;;;;;;;;19810672;30;20485;-57
2022/02/20 13:16:13;;;;;;;3.92;2.20;;;;;;;;;;19826606;30;20051;-60
2022/02/20 13:26:17;;;;;;;4.07;2.50;;;;;;;;;;19596223;30;20118;-59
2022/02/20 13:36:23;;;;;;;4.13;2.28;;;;;;;;;;19595010;30;20166;-59
2022/02/20 13:46:33;;;;;;;4.53;2.00;;;;;;;;;;19594353;30;20104;-60
2022/02/20 13:56:41;;;;;;;5.40;2.60;;;;;;;;;;19713868;30;20106;-63
2022/02/20 14:06:43;;;;;;;3.58;2.50;;;;;;;;;;19823358;30;20082;-59
2022/02/20 14:17:03;;;;;;;4.78;2.92;;;;;;;;;;19822052;30;20183;-60
2022/02/20 14:27:06;;;;;;;22.27;15.07;;;;;;;;;;19820869;29;20062;-58
2022/02/20 14:37:08;;;;;;;4.43;2.20;;;;;;;;;;19820702;30;20201;-59
2022/02/20 14:47:11;;;;;;;3.35;2.00;;;;;;;;;;19819654;29;20485;-60
2022/02/20 14:57:13;;;;;;;3.47;2.13;;;;;;;;;;19820180;30;20455;-60
2022/02/20 15:07:16;;;;;;;7.05;2.58;;;;;;;;;;19818147;30;20059;-58
2022/02/20 15:17:18;;;;;;;4.43;2.50;;;;;;;;;;19817528;30;20135;-62
2022/02/20 15:27:20;;;;;;;4.95;2.40;;;;;;;;;;19816539;30;20144;-59
2022/02/20 15:37:22;;;;;;;3.75;1.85;;;;;;;;;;19816806;30;20516;-57
2022/02/20 15:47:24;;;;;;;5.57;2.17;;;;;;;;;;19815647;30;20121;-61
2022/02/20 15:57:26;;;;;;;2.70;1.48;;;;;;;;;;19815728;30;20059;-65
2022/02/20 16:07:28;;;;;;;3.17;1.50;;;;;;;;;;19814539;30;20055;-59
2022/02/20 16:17:34;;;;;;;3.13;1.10;;;;;;;;;;19816155;30;20421;-61
2022/02/20 16:27:36;;;;;;;2.88;1.63;;;;;;;;;;19813486;30;20146;-64
2022/02/20 16:37:38;;;;;;;3.20;1.77;;;;;;;;;;19813665;30;20066;-63
2022/02/20 16:47:40;;;;;;;3.38;1.52;;;;;;;;;;19813827;30;20063;-62
2022/02/20 16:57:42;;;;;;;4.68;2.70;;;;;;;;;;19812831;30;20159;-62
2022/02/20 17:07:44;;;;;;;3.83;2.00;;;;;;;;;;19812425;29;20194;-65
2022/02/20 17:17:46;;;;;;;4.47;2.03;;;;;;;;;;19824756;30;20056;-63
2022/02/20 17:27:48;;;;;;;5.97;2.35;;;;;;;;;;19824761;29;20417;-62
2022/02/20 17:37:51;;;;;;;4.35;1.83;;;;;;;;;;19824387;30;20058;-63
2022/02/20 17:47:53;;;;;;;4.43;2.22;;;;;;;;;;19823835;30;20051;-66
2022/02/20 17:57:55;;;;;;;6.70;4.00;;;;;;;;;;19823296;30;20051;-61
2022/02/20 18:07:58;;;;;;;16.90;7.60;;;;;;;;;;19823149;30;20063;-59
2022/02/20 18:18:01;;;;;;;8.77;4.57;;;;;;;;;;19821888;30;20058;-65
2022/02/20 18:28:04;;;;;;;8.02;4.30;;;;;;;;;;19820485;29;20075;-63
2022/02/20 18:38:07;;;;;;;8.00;5.05;;;;;;;;;;19822250;30;20051;-61
2022/02/20 18:48:09;;;;;;;14.07;9.18;;;;;;;;;;19821577;30;20059;-60
2022/02/20 18:58:12;;;;;;;11.25;5.25;;;;;;;;;;19818952;30;20070;-59
2022/02/20 19:08:14;;;;;;;15.02;11.40;;;;;;;;;;19818186;30;20055;-59
2022/02/20 19:18:16;;;;;;;16.08;7.07;;;;;;;;;;19818364;30;20051;-60
2022/02/20 19:28:18;;;;;;;15.75;11.13;;;;;;;;;;19816661;29;20067;-61
2022/02/20 19:38:20;;;;;;;30.08;15.80;;;;;;;;;;19815731;30;20629;-60
2022/02/20 19:48:24;;;;;;;25.30;13.63;;;;;;;;;;19815600;30;20063;-60
2022/02/20 19:58:27;;;;;;;14.68;9.13;;;;;;;;;;19815365;30;20051;-60
2022/02/20 20:08:29;;;;;;;14.55;7.18;;;;;;;;;;19814910;30;20055;-62
2022/02/20 20:18:30;;;;;;;7.72;5.03;;;;;;;;;;19814947;30;20058;-59
2022/02/20 20:28:33;;;;;;;12.02;6.10;;;;;;;;;;19813834;30;20074;-61
2022/02/20 20:38:35;;;;;;;13.27;5.18;;;;;;;;;;19815456;30;20079;-58
2022/02/20 20:48:38;;;;;;;8.05;5.22;;;;;;;;;;19823388;29;20516;-63
2022/02/20 20:58:40;;;;;;;10.90;7.10;;;;;;;;;;19828680;30;20577;-61
2022/02/20 21:08:42;;;;;;;16.17;10.30;;;;;;;;;;19827537;30;20066;-59
2022/02/20 21:18:44;;;;;;;14.13;6.38;;;;;;;;;;19826736;30;20051;-65
2022/02/20 21:28:46;;;;;;;115.95;72.57;;;;;;;;;;19825737;30;20090;-63
2022/02/20 21:38:48;;;;;;;39.63;21.50;;;;;;;;;;19826702;30;20470;-60
2022/02/20 21:48:50;;;;;;;19.08;12.15;;;;;;;;;;19824975;30;20466;-60
2022/02/20 21:58:52;;;;;;;24.23;13.07;;;;;;;;;;19825081;29;20592;-60
2022/02/20 22:08:54;;;;;;;10.25;5.07;;;;;;;;;;19824663;30;20394;-60
2022/02/20 22:18:58;;;;;;;10.25;4.70;;;;;;;;;;19822716;30;20489;-60
2022/02/20 22:29:00;;;;;;;7.82;4.28;;;;;;;;;;19821437;30;20421;-58
2022/02/20 22:39:02;;;;;;;6.00;3.33;;;;;;;;;;19805896;30;20063;-65
2022/02/20 22:49:04;;;;;;;6.93;3.63;;;;;;;;;;19822577;30;20473;-61
2022/02/20 22:59:06;;;;;;;6.55;3.40;;;;;;;;;;19804342;30;20056;-63
2022/02/20 23:09:08;;;;;;;7.60;3.38;;;;;;;;;;19818138;29;20098;-63
2022/02/20 23:19:12;;;;;;;4.55;3.00;;;;;;;;;;19818497;30;20091;-65
2022/02/20 23:29:14;;;;;;;6.25;3.50;;;;;;;;;;19817741;30;20148;-67
2022/02/20 23:39:17;;;;;;;5.45;3.30;;;;;;;;;;19817358;30;20063;-66
2022/02/20 23:49:19;;;;;;;5.15;3.28;;;;;;;;;;19817109;30;20067;-65
2022/02/20 23:59:21;;;;;;;8.63;4.10;;;;;;;;;;19816398;30;20089;-64
